sensor_id;sensor_type;location;lat;lon;timestamp;P1;durP1;ratioP1;P2;durP2;ratioP2
9062;SDS011;4567;42.118;24.746;2022-11-28T00:02:23;9.50;;;8.50;;
9062;SDS011;4567;42.118;24.746;2022-11-28T00:04:50;11.40;;;8.90;;
9062;SDS011;4567;42.118;24.746;2022-11-28T00:07:17;10.27;;;8.50;;
9062;SDS011;4567;42.118;24.746;2022-11-28T00:09:44;11.70;;;8.93;;
9062;SDS011;4567;42.118;24.746;2022-11-28T00:12:11;9.73;;;8.70;;
9062;SDS011;4567;42.118;24.746;2022-11-28T00:14:37;10.80;;;8.93;;
9062;SDS011;4567;42.118;24.746;2022-11-28T00:17:05;9.57;;;8.50;;
9062;SDS011;4567;42.118;24.746;2022-11-28T00:19:32;10.20;;;8.77;;
9062;SDS011;4567;42.118;24.746;2022-11-28T00:21:59;12.07;;;8.67;;
9062;SDS011;4567;42.118;24.746;2022-11-28T00:24:25;11.13;;;9.43;;
9062;SDS011;4567;42.118;24.746;2022-11-28T00:26:52;10.70;;;9.50;;
9062;SDS011;4567;42.118;24.746;2022-11-28T00:29:19;12.73;;;9.60;;
9062;SDS011;4567;42.118;24.746;2022-11-28T00:31:45;13.47;;;10.70;;
9062;SDS011;4567;42.118;24.746;2022-11-28T00:34:13;11.40;;;9.63;;
9062;SDS011;4567;42.118;24.746;2022-11-28T00:36:41;13.97;;;10.70;;
9062;SDS011;4567;42.118;24.746;2022-11-28T00:39:09;12.90;;;10.50;;
9062;SDS011;4567;42.118;24.746;2022-11-28T00:41:36;13.10;;;10.63;;
9062;SDS011;4567;42.118;24.746;2022-11-28T00:44:03;12.83;;;10.20;;
9062;SDS011;4567;42.118;24.746;2022-11-28T00:46:29;12.17;;;10.57;;
9062;SDS011;4567;42.118;24.746;2022-11-28T00:48:56;12.73;;;10.73;;
9062;SDS011;4567;42.118;24.746;2022-11-28T00:51:25;14.60;;;11.10;;
9062;SDS011;4567;42.118;24.746;2022-11-28T00:53:54;13.10;;;10.93;;
9062;SDS011;4567;42.118;24.746;2022-11-28T00:56:22;14.27;;;11.23;;
9062;SDS011;4567;42.118;24.746;2022-11-28T00:58:50;15.40;;;11.20;;
9062;SDS011;4567;42.118;24.746;2022-11-28T01:01:18;15.77;;;11.70;;
9062;SDS011;4567;42.118;24.746;2022-11-28T01:03:46;16.60;;;12.00;;
9062;SDS011;4567;42.118;24.746;2022-11-28T01:06:19;14.97;;;11.60;;
9062;SDS011;4567;42.118;24.746;2022-11-28T01:08:49;13.97;;;11.30;;
9062;SDS011;4567;42.118;24.746;2022-11-28T01:11:16;12.97;;;10.57;;
9062;SDS011;4567;42.118;24.746;2022-11-28T01:13:43;14.47;;;11.13;;
9062;SDS011;4567;42.118;24.746;2022-11-28T01:16:11;15.17;;;11.47;;
9062;SDS011;4567;42.118;24.746;2022-11-28T01:18:37;14.13;;;10.87;;
9062;SDS011;4567;42.118;24.746;2022-11-28T01:21:04;15.17;;;11.33;;
9062;SDS011;4567;42.118;24.746;2022-11-28T01:23:32;13.73;;;10.33;;
9062;SDS011;4567;42.118;24.746;2022-11-28T01:26:01;18.33;;;11.33;;
9062;SDS011;4567;42.118;24.746;2022-11-28T01:28:31;13.77;;;10.67;;
9062;SDS011;4567;42.118;24.746;2022-11-28T01:31:01;12.40;;;10.23;;
9062;SDS011;4567;42.118;24.746;2022-11-28T01:33:29;12.60;;;10.80;;
9062;SDS011;4567;42.118;24.746;2022-11-28T01:35:56;13.97;;;10.97;;
9062;SDS011;4567;42.118;24.746;2022-11-28T01:38:24;13.43;;;10.60;;
9062;SDS011;4567;42.118;24.746;2022-11-28T01:40:51;14.10;;;10.70;;
9062;SDS011;4567;42.118;24.746;2022-11-28T01:43:19;13.73;;;10.87;;
9062;SDS011;4567;42.118;24.746;2022-11-28T01:45:46;14.00;;;11.17;;
9062;SDS011;4567;42.118;24.746;2022-11-28T01:48:13;13.03;;;11.10;;
9062;SDS011;4567;42.118;24.746;2022-11-28T01:50:43;13.03;;;11.00;;
9062;SDS011;4567;42.118;24.746;2022-11-28T01:53:14;13.50;;;9.93;;
9062;SDS011;4567;42.118;24.746;2022-11-28T01:55:42;12.97;;;10.30;;
9062;SDS011;4567;42.118;24.746;2022-11-28T01:58:13;14.97;;;10.60;;
9062;SDS011;4567;42.118;24.746;2022-11-28T02:00:42;12.77;;;10.40;;
9062;SDS011;4567;42.118;24.746;2022-11-28T02:03:09;14.20;;;10.87;;
9062;SDS011;4567;42.118;24.746;2022-11-28T02:05:39;14.33;;;10.20;;
9062;SDS011;4567;42.118;24.746;2022-11-28T02:08:06;13.37;;;10.23;;
9062;SDS011;4567;42.118;24.746;2022-11-28T02:10:39;13.77;;;10.37;;
9062;SDS011;4567;42.118;24.746;2022-11-28T02:13:21;12.03;;;9.90;;
9062;SDS011;4567;42.118;24.746;2022-11-28T02:16:06;11.87;;;10.17;;
9062;SDS011;4567;42.118;24.746;2022-11-28T02:18:53;12.00;;;10.17;;
9062;SDS011;4567;42.118;24.746;2022-11-28T02:21:30;11.80;;;9.70;;
9062;SDS011;4567;42.118;24.746;2022-11-28T02:24:13;11.60;;;10.37;;
9062;SDS011;4567;42.118;24.746;2022-11-28T02:27:00;11.87;;;10.13;;
9062;SDS011;4567;42.118;24.746;2022-11-28T02:32:37;12.77;;;10.47;;
9062;SDS011;4567;42.118;24.746;2022-11-28T02:35:17;12.03;;;10.60;;
9062;SDS011;4567;42.118;24.746;2022-11-28T02:37:51;11.20;;;9.70;;
9062;SDS011;4567;42.118;24.746;2022-11-28T02:40:27;13.73;;;10.83;;
9062;SDS011;4567;42.118;24.746;2022-11-28T02:43:02;15.77;;;10.83;;
9062;SDS011;4567;42.118;24.746;2022-11-28T02:45:37;14.13;;;10.67;;
9062;SDS011;4567;42.118;24.746;2022-11-28T02:48:14;14.53;;;10.90;;
9062;SDS011;4567;42.118;24.746;2022-11-28T02:50:49;14.73;;;11.67;;
9062;SDS011;4567;42.118;24.746;2022-11-28T02:53:21;15.23;;;11.90;;
9062;SDS011;4567;42.118;24.746;2022-11-28T02:55:51;13.77;;;11.00;;
9062;SDS011;4567;42.118;24.746;2022-11-28T02:58:18;14.00;;;10.63;;
9062;SDS011;4567;42.118;24.746;2022-11-28T03:00:46;13.33;;;11.73;;
9062;SDS011;4567;42.118;24.746;2022-11-28T03:03:18;16.00;;;12.57;;
9062;SDS011;4567;42.118;24.746;2022-11-28T03:06:08;13.83;;;12.23;;
9062;SDS011;4567;42.118;24.746;2022-11-28T03:08:49;15.50;;;12.30;;
9062;SDS011;4567;42.118;24.746;2022-11-28T03:11:27;16.53;;;12.97;;
9062;SDS011;4567;42.118;24.746;2022-11-28T03:14:08;20.37;;;16.53;;
9062;SDS011;4567;42.118;24.746;2022-11-28T03:16:45;23.50;;;16.90;;
9062;SDS011;4567;42.118;24.746;2022-11-28T03:19:18;19.17;;;14.37;;
9062;SDS011;4567;42.118;24.746;2022-11-28T03:21:54;22.00;;;16.90;;
9062;SDS011;4567;42.118;24.746;2022-11-28T03:24:31;23.23;;;18.23;;
9062;SDS011;4567;42.118;24.746;2022-11-28T03:27:04;29.10;;;21.97;;
9062;SDS011;4567;42.118;24.746;2022-11-28T03:29:36;28.10;;;21.80;;
9062;SDS011;4567;42.118;24.746;2022-11-28T03:32:07;28.37;;;21.13;;
9062;SDS011;4567;42.118;24.746;2022-11-28T03:34:39;25.20;;;19.27;;
9062;SDS011;4567;42.118;24.746;2022-11-28T03:37:10;23.80;;;18.70;;
9062;SDS011;4567;42.118;24.746;2022-11-28T03:39:41;24.47;;;19.27;;
9062;SDS011;4567;42.118;24.746;2022-11-28T03:42:14;24.97;;;19.30;;
9062;SDS011;4567;42.118;24.746;2022-11-28T03:44:44;22.30;;;17.60;;
9062;SDS011;4567;42.118;24.746;2022-11-28T03:47:15;21.60;;;16.47;;
9062;SDS011;4567;42.118;24.746;2022-11-28T03:49:43;22.07;;;15.40;;
9062;SDS011;4567;42.118;24.746;2022-11-28T03:52:17;21.50;;;16.43;;
9062;SDS011;4567;42.118;24.746;2022-11-28T03:54:49;21.77;;;16.00;;
9062;SDS011;4567;42.118;24.746;2022-11-28T03:57:20;21.63;;;15.37;;
9062;SDS011;4567;42.118;24.746;2022-11-28T03:59:53;19.10;;;14.97;;
9062;SDS011;4567;42.118;24.746;2022-11-28T04:02:26;21.80;;;14.33;;
9062;SDS011;4567;42.118;24.746;2022-11-28T04:04:59;21.33;;;14.40;;
9062;SDS011;4567;42.118;24.746;2022-11-28T04:07:31;20.20;;;14.77;;
9062;SDS011;4567;42.118;24.746;2022-11-28T04:10:05;18.30;;;14.37;;
9062;SDS011;4567;42.118;24.746;2022-11-28T04:12:42;21.93;;;14.70;;
9062;SDS011;4567;42.118;24.746;2022-11-28T04:15:18;20.77;;;14.60;;
9062;SDS011;4567;42.118;24.746;2022-11-28T04:17:51;20.30;;;14.53;;
9062;SDS011;4567;42.118;24.746;2022-11-28T04:20:26;20.67;;;13.93;;
9062;SDS011;4567;42.118;24.746;2022-11-28T04:22:58;17.53;;;14.40;;
9062;SDS011;4567;42.118;24.746;2022-11-28T04:25:28;19.20;;;14.80;;
9062;SDS011;4567;42.118;24.746;2022-11-28T04:28:01;29.87;;;19.17;;
9062;SDS011;4567;42.118;24.746;2022-11-28T04:30:32;20.87;;;15.40;;
9062;SDS011;4567;42.118;24.746;2022-11-28T04:33:00;18.30;;;14.03;;
9062;SDS011;4567;42.118;24.746;2022-11-28T04:35:32;17.23;;;13.50;;
9062;SDS011;4567;42.118;24.746;2022-11-28T04:38:03;17.77;;;14.10;;
9062;SDS011;4567;42.118;24.746;2022-11-28T04:40:33;18.80;;;14.33;;
9062;SDS011;4567;42.118;24.746;2022-11-28T04:43:05;21.07;;;14.43;;
9062;SDS011;4567;42.118;24.746;2022-11-28T04:45:36;17.30;;;12.93;;
9062;SDS011;4567;42.118;24.746;2022-11-28T04:48:09;15.93;;;13.00;;
9062;SDS011;4567;42.118;24.746;2022-11-28T04:50:39;17.17;;;13.07;;
9062;SDS011;4567;42.118;24.746;2022-11-28T04:53:14;16.60;;;12.40;;
9062;SDS011;4567;42.118;24.746;2022-11-28T04:55:46;15.00;;;12.67;;
9062;SDS011;4567;42.118;24.746;2022-11-28T04:58:18;18.13;;;12.97;;
9062;SDS011;4567;42.118;24.746;2022-11-28T05:00:49;16.63;;;13.23;;
9062;SDS011;4567;42.118;24.746;2022-11-28T05:03:17;20.37;;;14.73;;
9062;SDS011;4567;42.118;24.746;2022-11-28T05:05:46;18.77;;;14.13;;
9062;SDS011;4567;42.118;24.746;2022-11-28T05:08:15;16.90;;;13.37;;
9062;SDS011;4567;42.118;24.746;2022-11-28T05:10:43;16.97;;;13.03;;
9062;SDS011;4567;42.118;24.746;2022-11-28T05:13:10;15.73;;;12.57;;
9062;SDS011;4567;42.118;24.746;2022-11-28T05:15:36;17.40;;;12.47;;
9062;SDS011;4567;42.118;24.746;2022-11-28T05:18:03;16.83;;;12.63;;
9062;SDS011;4567;42.118;24.746;2022-11-28T05:20:31;16.20;;;12.43;;
9062;SDS011;4567;42.118;24.746;2022-11-28T05:23:00;14.10;;;11.87;;
9062;SDS011;4567;42.118;24.746;2022-11-28T05:25:27;15.67;;;11.83;;
9062;SDS011;4567;42.118;24.746;2022-11-28T05:27:54;12.40;;;11.00;;
9062;SDS011;4567;42.118;24.746;2022-11-28T05:30:20;18.93;;;12.57;;
9062;SDS011;4567;42.118;24.746;2022-11-28T05:32:47;18.23;;;12.63;;
9062;SDS011;4567;42.118;24.746;2022-11-28T05:35:14;17.27;;;12.43;;
9062;SDS011;4567;42.118;24.746;2022-11-28T05:37:41;13.77;;;11.30;;
9062;SDS011;4567;42.118;24.746;2022-11-28T05:40:09;15.17;;;11.90;;
9062;SDS011;4567;42.118;24.746;2022-11-28T05:42:36;17.03;;;13.03;;
9062;SDS011;4567;42.118;24.746;2022-11-28T05:45:03;15.60;;;12.33;;
9062;SDS011;4567;42.118;24.746;2022-11-28T05:47:30;15.50;;;12.17;;
9062;SDS011;4567;42.118;24.746;2022-11-28T05:49:58;15.43;;;11.83;;
9062;SDS011;4567;42.118;24.746;2022-11-28T05:52:26;14.80;;;12.07;;
9062;SDS011;4567;42.118;24.746;2022-11-28T05:54:56;15.07;;;12.33;;
9062;SDS011;4567;42.118;24.746;2022-11-28T05:57:25;17.87;;;12.60;;
9062;SDS011;4567;42.118;24.746;2022-11-28T05:59:54;15.80;;;12.23;;
9062;SDS011;4567;42.118;24.746;2022-11-28T06:02:21;16.17;;;12.97;;
9062;SDS011;4567;42.118;24.746;2022-11-28T06:04:48;17.30;;;12.67;;
9062;SDS011;4567;42.118;24.746;2022-11-28T06:07:14;16.00;;;12.67;;
9062;SDS011;4567;42.118;24.746;2022-11-28T06:09:42;17.30;;;12.73;;
9062;SDS011;4567;42.118;24.746;2022-11-28T06:12:09;16.60;;;13.37;;
9062;SDS011;4567;42.118;24.746;2022-11-28T06:14:37;16.40;;;12.80;;
9062;SDS011;4567;42.118;24.746;2022-11-28T06:17:04;15.83;;;12.33;;
9062;SDS011;4567;42.118;24.746;2022-11-28T06:19:31;16.40;;;12.60;;
9062;SDS011;4567;42.118;24.746;2022-11-28T06:21:57;16.33;;;12.60;;
9062;SDS011;4567;42.118;24.746;2022-11-28T06:24:24;16.50;;;13.00;;
9062;SDS011;4567;42.118;24.746;2022-11-28T06:26:51;20.40;;;14.43;;
9062;SDS011;4567;42.118;24.746;2022-11-28T06:29:19;17.10;;;13.67;;
9062;SDS011;4567;42.118;24.746;2022-11-28T06:31:47;18.43;;;14.30;;
9062;SDS011;4567;42.118;24.746;2022-11-28T06:34:14;17.63;;;14.13;;
9062;SDS011;4567;42.118;24.746;2022-11-28T06:36:41;15.47;;;12.47;;
9062;SDS011;4567;42.118;24.746;2022-11-28T06:39:08;15.67;;;12.60;;
9062;SDS011;4567;42.118;24.746;2022-11-28T06:41:37;17.47;;;13.67;;
9062;SDS011;4567;42.118;24.746;2022-11-28T06:44:04;19.50;;;14.40;;
9062;SDS011;4567;42.118;24.746;2022-11-28T06:46:32;19.83;;;13.83;;
9062;SDS011;4567;42.118;24.746;2022-11-28T06:49:00;18.37;;;13.53;;
9062;SDS011;4567;42.118;24.746;2022-11-28T06:51:26;18.38;;;14.57;;
9062;SDS011;4567;42.118;24.746;2022-11-28T06:53:53;17.40;;;12.63;;
9062;SDS011;4567;42.118;24.746;2022-11-28T06:56:20;17.57;;;13.03;;
9062;SDS011;4567;42.118;24.746;2022-11-28T06:58:51;16.77;;;13.10;;
9062;SDS011;4567;42.118;24.746;2022-11-28T07:01:20;17.17;;;12.97;;
9062;SDS011;4567;42.118;24.746;2022-11-28T07:03:48;17.20;;;12.90;;
9062;SDS011;4567;42.118;24.746;2022-11-28T07:06:17;18.67;;;12.90;;
9062;SDS011;4567;42.118;24.746;2022-11-28T07:08:44;16.93;;;12.20;;
9062;SDS011;4567;42.118;24.746;2022-11-28T07:11:13;15.63;;;12.03;;
9062;SDS011;4567;42.118;24.746;2022-11-28T07:13:41;14.73;;;12.00;;
9062;SDS011;4567;42.118;24.746;2022-11-28T07:16:12;15.13;;;12.70;;
9062;SDS011;4567;42.118;24.746;2022-11-28T07:18:40;17.03;;;12.60;;
9062;SDS011;4567;42.118;24.746;2022-11-28T07:21:06;16.37;;;13.17;;
9062;SDS011;4567;42.118;24.746;2022-11-28T07:23:34;14.90;;;12.30;;
9062;SDS011;4567;42.118;24.746;2022-11-28T07:26:02;14.30;;;11.83;;
9062;SDS011;4567;42.118;24.746;2022-11-28T07:28:30;15.13;;;11.43;;
9062;SDS011;4567;42.118;24.746;2022-11-28T07:30:58;14.37;;;11.70;;
9062;SDS011;4567;42.118;24.746;2022-11-28T07:33:26;14.50;;;11.57;;
9062;SDS011;4567;42.118;24.746;2022-11-28T07:35:54;13.17;;;10.83;;
9062;SDS011;4567;42.118;24.746;2022-11-28T07:38:25;14.40;;;10.43;;
9062;SDS011;4567;42.118;24.746;2022-11-28T07:40:53;11.93;;;10.50;;
9062;SDS011;4567;42.118;24.746;2022-11-28T07:43:19;12.03;;;10.53;;
9062;SDS011;4567;42.118;24.746;2022-11-28T07:45:46;11.57;;;9.77;;
9062;SDS011;4567;42.118;24.746;2022-11-28T07:48:13;14.37;;;10.10;;
9062;SDS011;4567;42.118;24.746;2022-11-28T07:50:39;10.30;;;9.20;;
9062;SDS011;4567;42.118;24.746;2022-11-28T07:53:06;10.63;;;9.40;;
9062;SDS011;4567;42.118;24.746;2022-11-28T07:55:33;10.53;;;8.40;;
9062;SDS011;4567;42.118;24.746;2022-11-28T07:58:03;10.37;;;8.83;;
9062;SDS011;4567;42.118;24.746;2022-11-28T08:00:30;8.70;;;7.73;;
9062;SDS011;4567;42.118;24.746;2022-11-28T08:02:57;8.70;;;7.80;;
9062;SDS011;4567;42.118;24.746;2022-11-28T08:05:23;8.27;;;7.47;;
9062;SDS011;4567;42.118;24.746;2022-11-28T08:07:50;9.67;;;7.90;;
9062;SDS011;4567;42.118;24.746;2022-11-28T08:10:17;8.40;;;7.50;;
9062;SDS011;4567;42.118;24.746;2022-11-28T08:12:44;8.80;;;7.90;;
9062;SDS011;4567;42.118;24.746;2022-11-28T08:15:12;7.73;;;7.00;;
9062;SDS011;4567;42.118;24.746;2022-11-28T08:17:38;8.27;;;6.93;;
9062;SDS011;4567;42.118;24.746;2022-11-28T08:20:06;9.30;;;7.63;;
9062;SDS011;4567;42.118;24.746;2022-11-28T08:22:33;7.93;;;7.10;;
9062;SDS011;4567;42.118;24.746;2022-11-28T08:25:00;8.10;;;7.30;;
9062;SDS011;4567;42.118;24.746;2022-11-28T08:27:26;8.03;;;7.23;;
9062;SDS011;4567;42.118;24.746;2022-11-28T08:29:53;7.83;;;7.03;;
9062;SDS011;4567;42.118;24.746;2022-11-28T08:32:21;7.97;;;7.17;;
9062;SDS011;4567;42.118;24.746;2022-11-28T08:34:48;9.47;;;8.00;;
9062;SDS011;4567;42.118;24.746;2022-11-28T08:37:14;8.77;;;7.53;;
9062;SDS011;4567;42.118;24.746;2022-11-28T08:39:41;8.13;;;7.40;;
9062;SDS011;4567;42.118;24.746;2022-11-28T08:42:08;13.93;;;8.07;;
9062;SDS011;4567;42.118;24.746;2022-11-28T08:44:34;9.57;;;7.50;;
9062;SDS011;4567;42.118;24.746;2022-11-28T08:47:01;8.57;;;7.50;;
9062;SDS011;4567;42.118;24.746;2022-11-28T08:49:29;6.43;;;5.83;;
9062;SDS011;4567;42.118;24.746;2022-11-28T08:51:57;6.40;;;5.80;;
9062;SDS011;4567;42.118;24.746;2022-11-28T08:54:23;6.13;;;5.63;;
9062;SDS011;4567;42.118;24.746;2022-11-28T08:56:50;6.33;;;5.70;;
9062;SDS011;4567;42.118;24.746;2022-11-28T08:59:17;6.30;;;5.70;;
9062;SDS011;4567;42.118;24.746;2022-11-28T09:01:43;5.60;;;5.10;;
9062;SDS011;4567;42.118;24.746;2022-11-28T09:04:10;5.80;;;5.30;;
9062;SDS011;4567;42.118;24.746;2022-11-28T09:06:38;6.57;;;5.97;;
9062;SDS011;4567;42.118;24.746;2022-11-28T09:09:05;5.97;;;5.33;;
9062;SDS011;4567;42.118;24.746;2022-11-28T09:11:33;5.90;;;5.40;;
9062;SDS011;4567;42.118;24.746;2022-11-28T09:14:00;6.53;;;5.93;;
9062;SDS011;4567;42.118;24.746;2022-11-28T09:16:26;7.00;;;6.30;;
9062;SDS011;4567;42.118;24.746;2022-11-28T09:18:53;6.90;;;6.30;;
9062;SDS011;4567;42.118;24.746;2022-11-28T09:21:21;6.00;;;5.50;;
9062;SDS011;4567;42.118;24.746;2022-11-28T09:23:49;7.90;;;7.20;;
9062;SDS011;4567;42.118;24.746;2022-11-28T09:26:20;7.67;;;6.97;;
9062;SDS011;4567;42.118;24.746;2022-11-28T09:28:49;7.73;;;7.00;;
9062;SDS011;4567;42.118;24.746;2022-11-28T09:31:17;8.50;;;7.67;;
9062;SDS011;4567;42.118;24.746;2022-11-28T09:33:44;8.97;;;7.40;;
9062;SDS011;4567;42.118;24.746;2022-11-28T09:36:12;7.40;;;6.70;;
9062;SDS011;4567;42.118;24.746;2022-11-28T09:38:40;7.90;;;7.10;;
9062;SDS011;4567;42.118;24.746;2022-11-28T09:41:19;8.87;;;7.97;;
9062;SDS011;4567;42.118;24.746;2022-11-28T09:43:56;7.03;;;6.43;;
9062;SDS011;4567;42.118;24.746;2022-11-28T09:46:28;7.00;;;6.40;;
9062;SDS011;4567;42.118;24.746;2022-11-28T09:48:59;7.87;;;7.10;;
9062;SDS011;4567;42.118;24.746;2022-11-28T09:51:30;7.57;;;6.87;;
9062;SDS011;4567;42.118;24.746;2022-11-28T09:54:04;8.40;;;7.60;;
9062;SDS011;4567;42.118;24.746;2022-11-28T09:56:37;8.83;;;7.97;;
9062;SDS011;4567;42.118;24.746;2022-11-28T09:59:05;8.67;;;7.87;;
9062;SDS011;4567;42.118;24.746;2022-11-28T10:01:43;9.30;;;8.40;;
9062;SDS011;4567;42.118;24.746;2022-11-28T10:04:17;10.27;;;9.17;;
9062;SDS011;4567;42.118;24.746;2022-11-28T10:06:52;10.20;;;9.07;;
9062;SDS011;4567;42.118;24.746;2022-11-28T10:09:30;9.27;;;8.20;;
9062;SDS011;4567;42.118;24.746;2022-11-28T10:12:09;9.73;;;8.70;;
9062;SDS011;4567;42.118;24.746;2022-11-28T10:14:53;9.93;;;8.93;;
9062;SDS011;4567;42.118;24.746;2022-11-28T10:17:36;9.13;;;8.23;;
9062;SDS011;4567;42.118;24.746;2022-11-28T10:20:13;9.80;;;8.70;;
9062;SDS011;4567;42.118;24.746;2022-11-28T10:22:45;10.17;;;9.07;;
9062;SDS011;4567;42.118;24.746;2022-11-28T10:25:16;11.30;;;10.07;;
9062;SDS011;4567;42.118;24.746;2022-11-28T10:27:47;10.73;;;9.63;;
9062;SDS011;4567;42.118;24.746;2022-11-28T10:30:17;10.87;;;9.77;;
9062;SDS011;4567;42.118;24.746;2022-11-28T10:32:49;9.73;;;8.73;;
9062;SDS011;4567;42.118;24.746;2022-11-28T10:35:22;10.47;;;9.47;;
9062;SDS011;4567;42.118;24.746;2022-11-28T10:37:53;10.80;;;9.67;;
9062;SDS011;4567;42.118;24.746;2022-11-28T10:40:22;11.60;;;10.40;;
9062;SDS011;4567;42.118;24.746;2022-11-28T10:42:57;10.90;;;9.77;;
9062;SDS011;4567;42.118;24.746;2022-11-28T10:45:28;10.27;;;9.27;;
9062;SDS011;4567;42.118;24.746;2022-11-28T10:48:11;9.63;;;8.73;;
9062;SDS011;4567;42.118;24.746;2022-11-28T10:50:48;10.47;;;9.47;;
9062;SDS011;4567;42.118;24.746;2022-11-28T10:53:24;11.83;;;10.63;;
9062;SDS011;4567;42.118;24.746;2022-11-28T10:56:04;12.03;;;10.83;;
9062;SDS011;4567;42.118;24.746;2022-11-28T10:58:41;12.13;;;10.93;;
9062;SDS011;4567;42.118;24.746;2022-11-28T11:01:14;14.70;;;13.20;;
9062;SDS011;4567;42.118;24.746;2022-11-28T11:03:41;12.87;;;11.03;;
9062;SDS011;4567;42.118;24.746;2022-11-28T11:06:08;15.97;;;14.27;;
9062;SDS011;4567;42.118;24.746;2022-11-28T11:08:35;14.37;;;11.80;;
9062;SDS011;4567;42.118;24.746;2022-11-28T11:11:03;16.07;;;13.63;;
9062;SDS011;4567;42.118;24.746;2022-11-28T11:13:32;12.83;;;10.67;;
9062;SDS011;4567;42.118;24.746;2022-11-28T11:16:02;10.87;;;9.77;;
9062;SDS011;4567;42.118;24.746;2022-11-28T11:18:33;11.00;;;9.90;;
9062;SDS011;4567;42.118;24.746;2022-11-28T11:21:05;10.33;;;9.33;;
9062;SDS011;4567;42.118;24.746;2022-11-28T11:23:40;11.00;;;9.90;;
9062;SDS011;4567;42.118;24.746;2022-11-28T11:26:07;11.40;;;9.67;;
9062;SDS011;4567;42.118;24.746;2022-11-28T11:28:47;10.57;;;9.47;;
9062;SDS011;4567;42.118;24.746;2022-11-28T11:31:21;11.52;;;10.43;;
9062;SDS011;4567;42.118;24.746;2022-11-28T11:33:50;9.97;;;8.97;;
9062;SDS011;4567;42.118;24.746;2022-11-28T11:36:27;9.50;;;8.60;;
9062;SDS011;4567;42.118;24.746;2022-11-28T11:39:05;9.97;;;9.07;;
9062;SDS011;4567;42.118;24.746;2022-11-28T11:41:41;10.57;;;9.53;;
9062;SDS011;4567;42.118;24.746;2022-11-28T11:44:28;9.17;;;8.23;;
9062;SDS011;4567;42.118;24.746;2022-11-28T11:47:00;8.70;;;7.87;;
9062;SDS011;4567;42.118;24.746;2022-11-28T11:49:30;10.03;;;9.03;;
9062;SDS011;4567;42.118;24.746;2022-11-28T11:51:58;9.87;;;8.87;;
9062;SDS011;4567;42.118;24.746;2022-11-28T11:54:28;10.10;;;9.10;;
9062;SDS011;4567;42.118;24.746;2022-11-28T11:56:56;11.40;;;10.30;;
9062;SDS011;4567;42.118;24.746;2022-11-28T11:59:25;10.80;;;9.70;;
9062;SDS011;4567;42.118;24.746;2022-11-28T12:01:57;10.20;;;8.90;;
9062;SDS011;4567;42.118;24.746;2022-11-28T12:04:29;10.10;;;9.20;;
9062;SDS011;4567;42.118;24.746;2022-11-28T12:06:59;10.97;;;9.87;;
9062;SDS011;4567;42.118;24.746;2022-11-28T12:09:31;10.90;;;8.97;;
9062;SDS011;4567;42.118;24.746;2022-11-28T12:12:06;10.83;;;9.63;;
9062;SDS011;4567;42.118;24.746;2022-11-28T12:14:38;9.83;;;8.83;;
9062;SDS011;4567;42.118;24.746;2022-11-28T12:17:10;10.13;;;9.13;;
9062;SDS011;4567;42.118;24.746;2022-11-28T12:19:49;9.47;;;8.57;;
9062;SDS011;4567;42.118;24.746;2022-11-28T12:22:26;12.47;;;9.97;;
9062;SDS011;4567;42.118;24.746;2022-11-28T12:25:03;11.23;;;10.13;;
9062;SDS011;4567;42.118;24.746;2022-11-28T12:27:42;11.33;;;10.20;;
9062;SDS011;4567;42.118;24.746;2022-11-28T12:30:23;12.07;;;10.67;;
9062;SDS011;4567;42.118;24.746;2022-11-28T12:33:02;12.70;;;11.50;;
9062;SDS011;4567;42.118;24.746;2022-11-28T12:35:46;11.60;;;10.40;;
9062;SDS011;4567;42.118;24.746;2022-11-28T12:38:24;10.73;;;9.63;;
9062;SDS011;4567;42.118;24.746;2022-11-28T12:41:05;11.43;;;10.00;;
9062;SDS011;4567;42.118;24.746;2022-11-28T12:43:48;11.40;;;10.23;;
9062;SDS011;4567;42.118;24.746;2022-11-28T12:46:25;11.47;;;10.27;;
9062;SDS011;4567;42.118;24.746;2022-11-28T12:49:02;10.80;;;9.70;;
9062;SDS011;4567;42.118;24.746;2022-11-28T12:51:41;11.87;;;10.57;;
9062;SDS011;4567;42.118;24.746;2022-11-28T12:54:23;12.00;;;10.63;;
9062;SDS011;4567;42.118;24.746;2022-11-28T12:57:01;11.27;;;10.17;;
9062;SDS011;4567;42.118;24.746;2022-11-28T12:59:36;13.17;;;11.40;;
9062;SDS011;4567;42.118;24.746;2022-11-28T13:02:14;11.87;;;10.63;;
9062;SDS011;4567;42.118;24.746;2022-11-28T13:04:55;12.00;;;9.60;;
9062;SDS011;4567;42.118;24.746;2022-11-28T13:07:45;10.00;;;8.87;;
9062;SDS011;4567;42.118;24.746;2022-11-28T13:10:22;10.53;;;9.53;;
9062;SDS011;4567;42.118;24.746;2022-11-28T13:12:53;11.03;;;9.93;;
9062;SDS011;4567;42.118;24.746;2022-11-28T13:15:35;12.90;;;11.53;;
9062;SDS011;4567;42.118;24.746;2022-11-28T13:18:19;15.20;;;12.97;;
9062;SDS011;4567;42.118;24.746;2022-11-28T13:21:00;16.77;;;14.30;;
9062;SDS011;4567;42.118;24.746;2022-11-28T13:23:35;12.67;;;11.37;;
9062;SDS011;4567;42.118;24.746;2022-11-28T13:26:08;12.03;;;10.83;;
9062;SDS011;4567;42.118;24.746;2022-11-28T13:28:41;13.93;;;12.53;;
9062;SDS011;4567;42.118;24.746;2022-11-28T13:31:16;13.67;;;12.27;;
9062;SDS011;4567;42.118;24.746;2022-11-28T13:33:49;13.50;;;12.10;;
9062;SDS011;4567;42.118;24.746;2022-11-28T13:36:20;13.77;;;12.33;;
9062;SDS011;4567;42.118;24.746;2022-11-28T13:38:55;16.00;;;12.90;;
9062;SDS011;4567;42.118;24.746;2022-11-28T13:41:30;14.50;;;13.00;;
9062;SDS011;4567;42.118;24.746;2022-11-28T13:44:02;15.10;;;13.50;;
9062;SDS011;4567;42.118;24.746;2022-11-28T13:46:39;15.10;;;13.40;;
9062;SDS011;4567;42.118;24.746;2022-11-28T13:49:07;13.60;;;12.20;;
9062;SDS011;4567;42.118;24.746;2022-11-28T13:51:36;13.50;;;12.10;;
9062;SDS011;4567;42.118;24.746;2022-11-28T13:57:02;12.37;;;11.00;;
9062;SDS011;4567;42.118;24.746;2022-11-28T13:59:34;12.93;;;11.03;;
9062;SDS011;4567;42.118;24.746;2022-11-28T14:02:02;11.77;;;10.17;;
9062;SDS011;4567;42.118;24.746;2022-11-28T14:04:43;11.20;;;10.10;;
9062;SDS011;4567;42.118;24.746;2022-11-28T14:07:18;11.23;;;10.10;;
9062;SDS011;4567;42.118;24.746;2022-11-28T14:09:51;10.77;;;9.73;;
9062;SDS011;4567;42.118;24.746;2022-11-28T14:12:24;11.73;;;10.30;;
9062;SDS011;4567;42.118;24.746;2022-11-28T14:15:01;12.07;;;10.87;;
9062;SDS011;4567;42.118;24.746;2022-11-28T14:17:43;13.20;;;11.80;;
9062;SDS011;4567;42.118;24.746;2022-11-28T14:20:26;14.13;;;11.33;;
9062;SDS011;4567;42.118;24.746;2022-11-28T14:23:15;12.03;;;10.83;;
9062;SDS011;4567;42.118;24.746;2022-11-28T14:25:50;11.68;;;10.48;;
9062;SDS011;4567;42.118;24.746;2022-11-28T14:28:19;13.90;;;10.43;;
9062;SDS011;4567;42.118;24.746;2022-11-28T14:30:49;12.57;;;11.17;;
9062;SDS011;4567;42.118;24.746;2022-11-28T14:33:25;18.47;;;15.40;;
9062;SDS011;4567;42.118;24.746;2022-11-28T14:36:01;12.13;;;10.93;;
9062;SDS011;4567;42.118;24.746;2022-11-28T14:38:59;11.00;;;9.90;;
9062;SDS011;4567;42.118;24.746;2022-11-28T14:41:28;12.00;;;10.67;;
9062;SDS011;4567;42.118;24.746;2022-11-28T14:43:54;15.70;;;11.87;;
9062;SDS011;4567;42.118;24.746;2022-11-28T14:47:03;14.27;;;12.10;;
9062;SDS011;4567;42.118;24.746;2022-11-28T14:49:31;15.27;;;12.33;;
9062;SDS011;4567;42.118;24.746;2022-11-28T14:52:08;14.73;;;11.20;;
9062;SDS011;4567;42.118;24.746;2022-11-28T14:54:45;12.10;;;10.50;;
9062;SDS011;4567;42.118;24.746;2022-11-28T14:57:15;12.77;;;10.70;;
9062;SDS011;4567;42.118;24.746;2022-11-28T14:59:44;12.40;;;11.10;;
9062;SDS011;4567;42.118;24.746;2022-11-28T15:05:13;13.93;;;11.80;;
9062;SDS011;4567;42.118;24.746;2022-11-28T15:07:55;14.40;;;12.87;;
9062;SDS011;4567;42.118;24.746;2022-11-28T15:10:40;15.57;;;12.60;;
9062;SDS011;4567;42.118;24.746;2022-11-28T15:13:19;15.03;;;12.80;;
9062;SDS011;4567;42.118;24.746;2022-11-28T15:15:58;15.40;;;13.27;;